Time;durP1;ratioP1;P1;durP2;ratioP2;P2;SDS_P1;SDS_P2;PMS_P1;PMS_P2;Temp;Humidity;BMP_temperature;BMP_pressure;BME280_temperature;BME280_humidity;BME280_pressure;Samples;Min_cycle;Max_cycle;Signal;HPM_P1;HPM_P2
2020/12/25 00:02:00;;;;;;;3.88;2.88;;;9.90;99.90;;;;;;5109630;28;20236;-82
2020/12/25 00:04:26;;;;;;;4.90;2.55;;;10.00;99.90;;;;;;5110146;28;20594;-82
2020/12/25 00:06:52;;;;;;;2.50;2.30;;;9.90;99.90;;;;;;5109923;28;20193;-82
2020/12/25 00:09:18;;;;;;;4.63;2.35;;;10.00;99.90;;;;;;5109946;28;20250;-82
2020/12/25 00:11:45;;;;;;;3.28;3.05;;;9.90;99.90;;;;;;5109900;28;20201;-82
2020/12/25 00:14:12;;;;;;;5.78;2.80;;;10.10;99.90;;;;;;5098051;28;20193;-82
2020/12/25 00:16:38;;;;;;;9.23;3.55;;;10.10;99.90;;;;;;5095953;28;20204;-81
2020/12/25 00:19:04;;;;;;;4.72;3.20;;;10.00;99.90;;;;;;5096247;28;20198;-82
2020/12/25 00:21:31;;;;;;;4.65;2.30;;;10.00;99.90;;;;;;5096060;28;20584;-82
2020/12/25 00:23:58;;;;;;;6.15;3.40;;;9.90;99.90;;;;;;5096138;28;20194;-82
2020/12/25 00:26:26;;;;;;;3.42;3.00;;;9.90;99.90;;;;;;5096060;28;20553;-82
2020/12/25 00:28:54;;;;;;;3.67;2.65;;;10.00;99.90;;;;;;5095912;28;20210;-82
2020/12/25 00:31:24;;;;;;;2.80;2.60;;;9.90;99.90;;;;;;5096043;28;20197;-82
2020/12/25 00:33:50;;;;;;;5.70;3.30;;;9.80;99.90;;;;;;5095831;28;20247;-82
2020/12/25 00:36:27;;;;;;;3.08;2.50;;;9.80;99.90;;;;;;5095960;28;20541;-82
2020/12/25 00:38:53;;;;;;;3.40;3.10;;;9.60;99.90;;;;;;5095881;28;20236;-82
2020/12/25 00:41:20;;;;;;;3.15;2.85;;;9.80;99.90;;;;;;5095705;28;20221;-82
2020/12/25 00:43:46;;;;;;;3.92;2.90;;;10.00;99.90;;;;;;5095685;28;20531;-82
2020/12/25 00:46:13;;;;;;;5.90;2.80;;;10.10;99.90;;;;;;5095685;28;20680;-82
2020/12/25 00:48:40;;;;;;;4.65;2.60;;;10.20;99.90;;;;;;5095630;28;20201;-82
2020/12/25 00:51:12;;;;;;;3.58;2.67;;;10.00;99.90;;;;;;5095754;28;20193;-82
2020/12/25 00:53:38;;;;;;;5.43;3.88;;;10.00;99.90;;;;;;5095522;28;20563;-82
2020/12/25 00:56:04;;;;;;;11.10;3.42;;;10.00;99.90;;;;;;5095537;28;20202;-82
2020/12/25 00:58:30;;;;;;;4.45;3.22;;;10.00;99.90;;;;;;5095174;28;20213;-82
2020/12/25 01:00:56;;;;;;;4.75;2.75;;;10.00;99.90;;;;;;5095184;28;20204;-82
2020/12/25 01:03:23;;;;;;;2.60;2.40;;;9.60;99.90;;;;;;5095372;28;20217;-82
2020/12/25 01:05:50;;;;;;;2.70;2.50;;;9.50;99.90;;;;;;5095470;28;20197;-82
2020/12/25 01:08:16;;;;;;;7.30;3.15;;;9.40;99.90;;;;;;5095074;28;20197;-82
2020/12/25 01:10:42;;;;;;;3.38;2.75;;;9.40;99.90;;;;;;5095190;28;20198;-82
2020/12/25 01:13:08;;;;;;;2.90;2.65;;;9.40;99.90;;;;;;5095105;28;20224;-82
2020/12/25 01:15:34;;;;;;;3.85;2.50;;;9.40;99.90;;;;;;5095166;28;20194;-82
2020/12/25 01:18:01;;;;;;;3.00;2.50;;;9.40;99.90;;;;;;5095039;28;20250;-82
2020/12/25 01:20:28;;;;;;;3.08;2.40;;;9.30;99.90;;;;;;5094991;28;20239;-82
2020/12/25 01:22:54;;;;;;;3.63;2.45;;;9.40;99.90;;;;;;5094960;28;20225;-82
2020/12/25 01:25:21;;;;;;;2.58;2.00;;;9.50;99.90;;;;;;5093985;28;20197;-82
2020/12/25 01:27:47;;;;;;;5.03;2.38;;;9.40;99.90;;;;;;5094812;28;20221;-82
2020/12/25 01:30:13;;;;;;;5.45;2.38;;;9.30;99.90;;;;;;5094966;28;20606;-82
2020/12/25 01:32:39;;;;;;;2.35;2.05;;;9.40;99.90;;;;;;5094968;28;20197;-82
2020/12/25 01:35:06;;;;;;;4.75;2.15;;;9.30;99.90;;;;;;5094945;28;20190;-82
2020/12/25 01:37:33;;;;;;;2.88;2.10;;;9.30;99.90;;;;;;5094705;28;20204;-82
2020/12/25 01:39:59;;;;;;;3.08;2.50;;;9.40;99.90;;;;;;5094825;28;20216;-82
2020/12/25 01:42:25;;;;;;;5.97;2.00;;;9.50;99.90;;;;;;5094598;28;20229;-82
2020/12/25 01:44:51;;;;;;;4.53;2.00;;;9.50;99.90;;;;;;5094755;28;20564;-82
2020/12/25 01:47:19;;;;;;;3.55;2.30;;;9.50;99.90;;;;;;5094309;28;20675;-82
2020/12/25 01:49:46;;;;;;;3.85;1.98;;;9.50;99.90;;;;;;5094634;28;20246;-82
2020/12/25 01:52:14;;;;;;;2.88;1.90;;;9.60;99.90;;;;;;5094531;28;20200;-83
2020/12/25 01:54:43;;;;;;;3.40;1.60;;;9.60;99.90;;;;;;5094375;28;20194;-82
2020/12/25 01:57:10;;;;;;;4.95;1.85;;;9.70;99.90;;;;;;5094124;28;20218;-82
2020/12/25 01:59:37;;;;;;;10.77;2.50;;;9.70;99.90;;;;;;5094388;28;20201;-83
2020/12/25 02:02:03;;;;;;;2.35;1.83;;;9.50;99.90;;;;;;5093985;28;20229;-82
2020/12/25 02:04:29;;;;;;;3.10;1.83;;;9.50;99.90;;;;;;5094152;28;20904;-82
2020/12/25 02:06:56;;;;;;;3.58;2.08;;;9.50;99.90;;;;;;5093794;28;20193;-82
2020/12/25 02:09:22;;;;;;;6.82;2.20;;;9.50;99.90;;;;;;5094169;28;20537;-82
2020/12/25 02:11:49;;;;;;;4.20;2.28;;;9.50;99.90;;;;;;5093948;28;20201;-82
2020/12/25 02:14:16;;;;;;;9.68;1.90;;;9.50;99.90;;;;;;5094037;28;20201;-82
2020/12/25 02:16:42;;;;;;;1.50;1.40;;;9.50;99.90;;;;;;5094006;28;20222;-82
2020/12/25 02:19:08;;;;;;;2.90;1.75;;;9.40;99.90;;;;;;5093966;28;20311;-82
2020/12/25 02:21:35;;;;;;;3.50;1.95;;;9.40;99.90;;;;;;5093820;28;20217;-82
2020/12/25 02:24:02;;;;;;;1.85;1.50;;;9.40;99.90;;;;;;5093799;28;20197;-82
2020/12/25 02:26:28;;;;;;;5.55;2.17;;;9.40;99.90;;;;;;5093596;28;20193;-82
2020/12/25 02:32:16;;;;;;;1.98;1.48;;;9.20;99.90;;;;;;5093628;28;20196;-82
2020/12/25 02:34:43;;;;;;;2.50;1.50;;;9.10;99.90;;;;;;5093666;28;20190;-82
2020/12/25 02:37:10;;;;;;;3.90;2.08;;;9.20;99.90;;;;;;5093443;28;20189;-82
2020/12/25 02:39:37;;;;;;;5.18;2.00;;;9.30;99.90;;;;;;5093731;28;20552;-82
2020/12/25 02:42:03;;;;;;;6.20;1.65;;;9.30;99.90;;;;;;5093471;28;20225;-82
2020/12/25 02:44:29;;;;;;;3.42;1.85;;;9.20;99.90;;;;;;5093526;28;20205;-83
2020/12/25 02:46:55;;;;;;;3.42;2.03;;;9.10;99.90;;;;;;5093512;28;20198;-82
2020/12/25 02:49:22;;;;;;;4.82;1.85;;;9.10;99.90;;;;;;5093638;28;20204;-82
2020/12/25 02:51:48;;;;;;;8.30;3.72;;;9.00;99.90;;;;;;5093262;28;20205;-82
2020/12/25 02:54:15;;;;;;;4.80;1.60;;;9.00;99.90;;;;;;5093443;28;20201;-82
2020/12/25 02:56:41;;;;;;;7.07;2.22;;;8.90;99.90;;;;;;5093254;28;20209;-82
2020/12/25 02:59:07;;;;;;;6.88;1.95;;;8.80;99.90;;;;;;5093455;28;20197;-82
2020/12/25 03:01:34;;;;;;;4.05;1.90;;;8.80;99.90;;;;;;5093008;28;20229;-82
2020/12/25 03:04:00;;;;;;;5.57;1.75;;;8.80;99.90;;;;;;5093317;28;20653;-82
2020/12/25 03:06:26;;;;;;;6.97;1.63;;;8.90;99.90;;;;;;5093337;28;20198;-82
2020/12/25 03:08:52;;;;;;;6.28;1.95;;;8.90;99.90;;;;;;5093318;28;20193;-83
2020/12/25 03:11:19;;;;;;;6.13;1.63;;;8.90;99.90;;;;;;5093024;28;20194;-83
2020/12/25 03:13:46;;;;;;;2.28;1.35;;;8.80;99.90;;;;;;5093207;28;20292;-82
2020/12/25 03:16:12;;;;;;;2.92;1.58;;;8.80;99.90;;;;;;5093304;28;20766;-82
2020/12/25 03:18:38;;;;;;;3.30;1.77;;;8.80;99.90;;;;;;5093355;28;20204;-82
2020/12/25 03:21:04;;;;;;;6.15;1.80;;;8.60;99.90;;;;;;5092888;28;20208;-82
2020/12/25 03:23:31;;;;;;;7.13;1.85;;;8.50;99.90;;;;;;5093000;28;20228;-82
2020/12/25 03:25:57;;;;;;;4.95;1.55;;;8.50;99.90;;;;;;5093223;28;20271;-83
2020/12/25 03:28:24;;;;;;;4.97;1.38;;;8.50;99.90;;;;;;5093032;28;20559;-82
2020/12/25 03:30:50;;;;;;;8.15;2.40;;;8.60;99.90;;;;;;5093129;28;20197;-82
2020/12/25 03:33:17;;;;;;;7.60;2.15;;;8.60;99.90;;;;;;5092926;28;20197;-82
2020/12/25 03:35:43;;;;;;;4.45;1.45;;;8.60;99.90;;;;;;5093149;28;20193;-82
2020/12/25 03:38:09;;;;;;;4.78;1.40;;;8.50;99.90;;;;;;5093140;28;20227;-83
2020/12/25 03:40:35;;;;;;;7.63;1.63;;;8.50;99.90;;;;;;5093001;28;20190;-82
2020/12/25 03:43:01;;;;;;;7.25;1.70;;;8.50;99.90;;;;;;5092884;28;20246;-82
2020/12/25 03:45:29;;;;;;;1.80;1.50;;;8.50;99.90;;;;;;5093075;28;20202;-82
2020/12/25 03:47:55;;;;;;;1.92;1.17;;;8.50;99.90;;;;;;5093327;28;20250;-81
2020/12/25 03:50:21;;;;;;;3.35;1.58;;;8.40;99.90;;;;;;5096820;28;20530;-82
2020/12/25 03:52:47;;;;;;;2.78;1.80;;;8.30;99.90;;;;;;5096694;28;20194;-82
2020/12/25 03:55:14;;;;;;;1.80;1.30;;;8.30;99.90;;;;;;5096815;28;20194;-82
2020/12/25 03:57:40;;;;;;;4.95;1.35;;;8.30;99.90;;;;;;5096814;28;20218;-82
2020/12/25 04:00:06;;;;;;;3.15;1.50;;;8.30;99.90;;;;;;5096424;28;20194;-82
2020/12/25 04:02:33;;;;;;;8.45;2.05;;;8.20;99.90;;;;;;5096257;28;20259;-82
2020/12/25 04:05:00;;;;;;;4.05;1.50;;;8.10;99.90;;;;;;5096563;28;20601;-81
2020/12/25 04:07:26;;;;;;;9.85;2.75;;;8.10;99.90;;;;;;5096693;28;20556;-79
2020/12/25 04:09:52;;;;;;;3.55;1.60;;;7.90;99.90;;;;;;5096577;28;20284;-80
2020/12/25 04:12:18;;;;;;;2.85;1.70;;;7.90;99.90;;;;;;5096291;28;20198;-80
2020/12/25 04:14:44;;;;;;;7.72;2.35;;;7.90;99.90;;;;;;5096301;28;20246;-80
2020/12/25 04:17:11;;;;;;;2.50;1.50;;;7.90;99.90;;;;;;5096335;28;20201;-80
2020/12/25 04:19:38;;;;;;;5.88;1.77;;;7.80;99.90;;;;;;5096154;28;20666;-80
2020/12/25 04:22:04;;;;;;;3.08;1.73;;;7.80;99.90;;;;;;5096104;28;20229;-80
2020/12/25 04:24:30;;;;;;;5.50;1.38;;;7.70;99.90;;;;;;5096138;28;20218;-80
2020/12/25 04:26:57;;;;;;;6.88;2.05;;;7.70;99.90;;;;;;5095956;28;20240;-81
2020/12/25 04:29:23;;;;;;;4.15;1.80;;;7.80;99.90;;;;;;5096158;28;20194;-80
2020/12/25 04:31:49;;;;;;;4.30;1.60;;;7.90;99.90;;;;;;5095802;28;20197;-80
2020/12/25 04:34:16;;;;;;;8.90;2.50;;;8.10;99.90;;;;;;5095994;28;20543;-80
2020/12/25 04:36:43;;;;;;;5.75;1.75;;;8.10;99.90;;;;;;5095967;28;20197;-80
2020/12/25 04:39:09;;;;;;;5.57;1.60;;;8.00;99.90;;;;;;5095896;28;20204;-80
2020/12/25 04:41:36;;;;;;;4.88;1.80;;;8.00;99.90;;;;;;5095804;28;20198;-80
2020/12/25 04:44:06;;;;;;;4.75;1.80;;;7.90;99.90;;;;;;5095752;28;20194;-80
2020/12/25 04:46:32;;;;;;;4.32;2.03;;;7.80;99.90;;;;;;5095838;28;20194;-80
2020/12/25 04:48:58;;;;;;;3.00;1.52;;;7.70;99.90;;;;;;5095809;28;20706;-80
2020/12/25 04:51:25;;;;;;;5.25;2.10;;;7.70;99.90;;;;;;5095698;28;20677;-80
2020/12/25 04:53:53;;;;;;;6.25;1.75;;;7.70;99.90;;;;;;5095546;28;20216;-80
2020/12/25 04:56:21;;;;;;;4.78;2.22;;;7.70;99.90;;;;;;5095468;28;20673;-80
2020/12/25 04:59:09;;;;;;;4.55;1.80;;;7.70;99.90;;;;;;5095200;28;20603;-79
2020/12/25 05:05:05;;;;;;;6.43;1.77;;;7.60;99.90;;;;;;5092895;28;20311;-80
2020/12/25 05:07:32;;;;;;;10.23;1.95;;;7.60;99.90;;;;;;5095319;28;20204;-79
2020/12/25 05:09:59;;;;;;;3.45;1.70;;;7.50;99.90;;;;;;5095422;28;20219;-80
2020/12/25 05:12:28;;;;;;;6.43;2.70;;;7.60;99.90;;;;;;5095241;28;20197;-79
2020/12/25 05:14:54;;;;;;;6.13;2.30;;;7.80;99.90;;;;;;5095142;28;20198;-80
2020/12/25 05:17:22;;;;;;;4.82;1.77;;;7.90;99.90;;;;;;5095128;28;20193;-80
2020/12/25 05:19:49;;;;;;;5.80;2.28;;;8.10;99.90;;;;;;5094857;28;20555;-80
2020/12/25 05:22:19;;;;;;;9.20;2.40;;;8.20;99.90;;;;;;5094850;28;20222;-81
2020/12/25 05:24:45;;;;;;;3.83;1.83;;;8.30;99.90;;;;;;5094948;28;20194;-80
2020/12/25 05:27:13;;;;;;;6.25;2.25;;;8.30;99.90;;;;;;5094714;28;20213;-80
2020/12/25 05:29:40;;;;;;;5.03;2.30;;;8.40;99.90;;;;;;5095283;28;20208;-80
2020/12/25 05:32:07;;;;;;;6.40;2.10;;;8.30;99.90;;;;;;5094904;28;20201;-80
2020/12/25 05:34:35;;;;;;;6.63;1.67;;;8.30;99.90;;;;;;5094776;28;20197;-80
2020/12/25 05:37:03;;;;;;;9.25;2.10;;;8.40;99.90;;;;;;5094626;28;20656;-80
2020/12/25 05:39:31;;;;;;;7.10;2.25;;;8.40;99.90;;;;;;5094710;28;20190;-80
2020/12/25 05:41:59;;;;;;;9.63;2.20;;;8.20;99.90;;;;;;5094499;28;20217;-80
2020/12/25 05:44:28;;;;;;;4.63;2.30;;;8.20;99.90;;;;;;5094658;28;20189;-80
2020/12/25 05:46:58;;;;;;;6.00;2.00;;;8.00;99.90;;;;;;5094636;28;20596;-80
2020/12/25 05:49:27;;;;;;;4.00;2.03;;;8.00;99.90;;;;;;5094593;28;20197;-80
2020/12/25 05:51:55;;;;;;;7.05;2.28;;;8.10;99.90;;;;;;5094576;28;20190;-80
2020/12/25 05:54:23;;;;;;;5.97;2.10;;;8.10;99.90;;;;;;5094506;28;20550;-80
2020/12/25 05:56:52;;;;;;;4.50;2.10;;;8.10;99.90;;;;;;5094131;28;20593;-79
2020/12/25 05:59:23;;;;;;;4.57;2.70;;;8.00;99.90;;;;;;5094486;28;20197;-80
2020/12/25 06:01:53;;;;;;;4.25;2.05;;;8.00;99.90;;;;;;5094282;28;20244;-80
2020/12/25 06:04:20;;;;;;;7.88;2.30;;;7.90;99.90;;;;;;5093939;28;20222;-80
2020/12/25 06:06:48;;;;;;;4.57;1.90;;;7.80;99.90;;;;;;5094094;28;20193;-80
2020/12/25 06:09:16;;;;;;;5.80;2.10;;;7.80;99.90;;;;;;5094121;28;20189;-80
2020/12/25 06:11:47;;;;;;;2.80;1.63;;;7.60;99.90;;;;;;5093505;28;20201;-81
2020/12/25 06:14:14;;;;;;;9.57;3.58;;;7.50;99.90;;;;;;5094195;28;20198;-80
2020/12/25 06:17:01;;;;;;;5.10;2.20;;;7.50;99.90;;;;;;5094065;28;20602;-80
2020/12/25 06:19:40;;;;;;;7.10;2.60;;;7.50;99.90;;;;;;5093972;28;20194;-80
2020/12/25 06:22:12;;;;;;;6.05;2.55;;;7.40;99.90;;;;;;5093993;28;20278;-80
2020/12/25 06:24:39;;;;;;;5.90;2.50;;;7.40;99.90;;;;;;5093673;28;20204;-80
2020/12/25 06:27:05;;;;;;;3.88;2.33;;;7.50;99.90;;;;;;5093770;28;20271;-80
2020/12/25 06:29:32;;;;;;;5.72;2.80;;;7.60;99.90;;;;;;5093922;28;20193;-80
2020/12/25 06:32:01;;;;;;;7.15;2.15;;;7.70;99.90;;;;;;5093884;28;20649;-80
2020/12/25 06:34:43;;;;;;;5.32;2.65;;;7.80;99.90;;;;;;5093840;28;20193;-80
2020/12/25 06:37:13;;;;;;;3.67;2.60;;;8.00;99.90;;;;;;5094060;28;20666;-80
2020/12/25 06:39:53;;;;;;;3.88;2.47;;;8.10;99.90;;;;;;5093726;28;20205;-80
2020/12/25 06:42:28;;;;;;;4.18;2.85;;;8.20;99.90;;;;;;5093695;28;20224;-80
2020/12/25 06:44:56;;;;;;;7.35;3.13;;;8.30;99.90;;;;;;5093841;28;20201;-81
2020/12/25 06:47:29;;;;;;;4.95;2.50;;;8.30;99.90;;;;;;5093556;28;20200;-80
2020/12/25 06:49:57;;;;;;;4.80;2.45;;;8.40;99.90;;;;;;5093783;28;20197;-80
2020/12/25 06:52:31;;;;;;;5.50;2.17;;;8.40;99.90;;;;;;5093517;28;20194;-80
2020/12/25 06:54:57;;;;;;;3.47;2.38;;;8.40;99.90;;;;;;5093285;28;20807;-80
2020/12/25 06:57:27;;;;;;;4.88;2.00;;;8.40;99.90;;;;;;5093350;28;20220;-80
2020/12/25 06:59:57;;;;;;;6.15;3.15;;;8.40;99.90;;;;;;5093543;28;20189;-80
2020/12/25 07:02:25;;;;;;;11.85;3.08;;;8.30;99.90;;;;;;5093366;28;20247;-81
2020/12/25 07:05:01;;;;;;;3.08;2.00;;;8.30;99.90;;;;;;5093104;28;20229;-82
2020/12/25 07:07:31;;;;;;;6.35;2.45;;;8.30;99.90;;;;;;5093525;28;20201;-82
2020/12/25 07:10:05;;;;;;;5.47;2.40;;;8.40;99.90;;;;;;5093257;28;20201;-82
2020/12/25 07:12:32;;;;;;;6.00;2.22;;;8.40;99.90;;;;;;5093295;28;20216;-81
2020/12/25 07:14:58;;;;;;;7.53;2.90;;;8.40;99.90;;;;;;5093327;28;20204;-82
2020/12/25 07:17:25;;;;;;;8.93;2.58;;;8.40;99.90;;;;;;5093136;28;20201;-82
2020/12/25 07:19:52;;;;;;;7.00;2.95;;;8.40;99.90;;;;;;5093322;28;20666;-82
2020/12/25 07:22:20;;;;;;;7.85;2.63;;;8.40;99.90;;;;;;5093312;28;20228;-82
2020/12/25 07:24:47;;;;;;;6.70;2.40;;;8.30;99.90;;;;;;5096783;28;20242;-82
2020/12/25 07:27:14;;;;;;;5.13;2.38;;;8.30;99.90;;;;;;5096968;28;20224;-83
2020/12/25 07:29:42;;;;;;;6.53;2.08;;;8.40;99.90;;;;;;5097171;28;20194;-82
2020/12/25 07:32:09;;;;;;;7.40;2.10;;;8.40;99.90;;;;;;5097233;28;20201;-82
2020/12/25 07:34:35;;;;;;;4.90;2.22;;;8.40;99.90;;;;;;5097179;28;20193;-82
2020/12/25 07:37:02;;;;;;;6.40;2.38;;;8.40;99.90;;;;;;5097062;28;20194;-82
2020/12/25 07:39:30;;;;;;;3.55;1.85;;;8.50;99.90;;;;;;5097240;28;20208;-82
2020/12/25 07:41:57;;;;;;;6.85;2.35;;;8.50;99.90;;;;;;5097191;28;20200;-82
2020/12/25 07:44:24;;;;;;;3.90;2.45;;;8.50;99.90;;;;;;5097002;28;20202;-82
2020/12/25 07:46:51;;;;;;;13.00;2.75;;;8.50;99.90;;;;;;5096750;28;20216;-82
2020/12/25 07:49:19;;;;;;;5.60;2.53;;;8.50;99.90;;;;;;5096951;28;20194;-82
2020/12/25 07:51:48;;;;;;;3.72;1.88;;;8.50;99.90;;;;;;5096838;28;20535;-82
2020/12/25 07:54:15;;;;;;;3.83;2.35;;;8.50;99.90;;;;;;5096711;28;20205;-82
2020/12/25 07:56:43;;;;;;;2.20;1.63;;;8.50;99.90;;;;;;5096516;28;20217;-82
2020/12/25 07:59:09;;;;;;;5.60;1.70;;;8.50;99.90;;;;;;5096827;28;20194;-82
2020/12/25 08:01:36;;;;;;;1.67;1.48;;;8.50;99.90;;;;;;5096643;28;20201;-82
2020/12/25 08:04:04;;;;;;;3.38;1.50;;;8.50;99.90;;;;;;5096310;28;20241;-82
2020/12/25 08:06:32;;;;;;;7.60;2.20;;;8.50;99.90;;;;;;5096394;28;20206;-82
2020/12/25 08:09:03;;;;;;;3.38;1.90;;;8.50;99.90;;;;;;5096533;28;20190;-83
2020/12/25 08:11:31;;;;;;;4.65;1.80;;;8.40;99.90;;;;;;5096327;28;20194;-82
2020/12/25 08:14:02;;;;;;;4.05;1.90;;;8.40;99.90;;;;;;5096329;28;20208;-82
2020/12/25 08:16:30;;;;;;;2.38;1.52;;;8.40;99.90;;;;;;5096258;28;20194;-82
2020/12/25 08:18:56;;;;;;;6.97;1.75;;;8.40;99.90;;;;;;5096058;28;20212;-81
2020/12/25 08:21:30;;;;;;;4.85;2.45;;;8.40;99.90;;;;;;5096186;28;20190;-81
2020/12/25 08:23:56;;;;;;;3.55;1.80;;;8.40;99.90;;;;;;5096067;28;20244;-81
2020/12/25 08:26:29;;;;;;;2.08;1.60;;;8.40;99.90;;;;;;5096074;28;20263;-82
2020/12/25 08:28:56;;;;;;;3.78;1.95;;;8.40;99.90;;;;;;5096214;28;20592;-82
2020/12/25 08:31:23;;;;;;;6.22;2.00;;;8.40;99.90;;;;;;5096001;28;20561;-82
2020/12/25 08:33:52;;;;;;;1.63;1.52;;;8.30;99.90;;;;;;5095421;28;20232;-82
2020/12/25 08:36:19;;;;;;;2.45;1.70;;;8.30;99.90;;;;;;5095900;28;20189;-82
2020/12/25 08:38:45;;;;;;;6.55;2.97;;;8.20;99.90;;;;;;5095871;28;20560;-82
2020/12/25 08:41:11;;;;;;;3.92;1.75;;;8.30;99.90;;;;;;5095884;28;20216;-81
2020/12/25 08:43:39;;;;;;;2.22;1.48;;;8.20;99.90;;;;;;5095780;28;20680;-81
2020/12/25 08:46:05;;;;;;;2.00;1.45;;;8.30;99.90;;;;;;5082809;28;20225;-81
2020/12/25 08:48:34;;;;;;;5.45;1.52;;;8.30;99.90;;;;;;5075420;28;20206;-86
2020/12/25 08:51:07;;;;;;;5.50;1.90;;;8.30;99.90;;;;;;5075436;28;20194;-81
2020/12/25 08:53:33;;;;;;;2.85;1.42;;;8.40;99.90;;;;;;5075325;28;20198;-82
2020/12/25 08:56:13;;;;;;;3.92;1.90;;;8.30;99.90;;;;;;5075194;28;20202;-81
2020/12/25 08:58:40;;;;;;;6.32;1.73;;;8.30;99.90;;;;;;5075226;28;20194;-81
2020/12/25 09:01:06;;;;;;;2.70;1.80;;;8.20;99.90;;;;;;5075274;28;20193;-80
2020/12/25 09:03:40;;;;;;;7.25;2.00;;;8.10;99.90;;;;;;5074829;28;20275;-80
2020/12/25 09:06:08;;;;;;;8.43;1.95;;;8.10;99.90;;;;;;5075004;28;20201;-82
2020/12/25 09:08:34;;;;;;;2.75;1.63;;;8.10;99.90;;;;;;5075144;28;20220;-82
2020/12/25 09:11:01;;;;;;;4.72;2.40;;;8.20;99.90;;;;;;5075106;28;20641;-81
2020/12/25 09:13:27;;;;;;;5.40;2.10;;;8.30;99.90;;;;;;5075054;28;20554;-82
2020/12/25 09:15:53;;;;;;;6.30;1.50;;;8.40;99.90;;;;;;5074899;28;20198;-82
2020/12/25 09:18:19;;;;;;;3.42;1.70;;;8.50;99.90;;;;;;5074768;28;20217;-82
2020/12/25 09:20:46;;;;;;;9.40;1.95;;;8.50;99.90;;;;;;5074706;28;20195;-84
2020/12/25 09:23:13;;;;;;;3.45;1.30;;;8.60;99.90;;;;;;5074672;28;20234;-81
2020/12/25 09:25:39;;;;;;;2.25;1.30;;;8.60;99.90;;;;;;5074858;28;20195;-82
2020/12/25 09:28:05;;;;;;;3.30;1.88;;;8.50;99.90;;;;;;5074551;28;20616;-82
2020/12/25 09:30:31;;;;;;;4.07;1.75;;;8.50;99.90;;;;;;5074612;28;20201;-82
2020/12/25 09:32:58;;;;;;;7.10;2.92;;;8.50;99.90;;;;;;5074689;28;20248;-82
2020/12/25 09:35:24;;;;;;;5.38;1.77;;;8.50;99.90;;;;;;5074616;28;20198;-81
2020/12/25 09:37:51;;;;;;;4.35;1.70;;;8.40;99.90;;;;;;5074557;28;20202;-81
2020/12/25 09:40:17;;;;;;;6.00;1.85;;;8.40;99.90;;;;;;5074435;28;20191;-81
2020/12/25 09:42:43;;;;;;;7.80;2.20;;;8.40;99.90;;;;;;5074255;28;20222;-81
2020/12/25 09:45:09;;;;;;;3.47;1.65;;;8.30;99.90;;;;;;5074180;28;20330;-82
2020/12/25 09:47:36;;;;;;;5.72;1.90;;;8.20;99.90;;;;;;5073659;28;20199;-82
2020/12/25 09:50:03;;;;;;;2.63;1.55;;;8.30;99.90;;;;;;5074339;28;20202;-81
2020/12/25 09:52:29;;;;;;;4.60;2.38;;;8.30;99.90;;;;;;5074234;28;20205;-81
2020/12/25 09:54:56;;;;;;;5.25;2.95;;;8.30;99.90;;;;;;5074201;28;20194;-81
2020/12/25 09:57:23;;;;;;;3.90;2.00;;;8.30;99.90;;;;;;5073921;28;20225;-82
2020/12/25 09:59:50;;;;;;;4.32;1.42;;;8.20;99.90;;;;;;5074043;28;20217;-84
2020/12/25 10:02:17;;;;;;;3.50;2.22;;;8.20;99.90;;;;;;5073921;28;20214;-81
2020/12/25 10:04:43;;;;;;;4.03;1.90;;;8.10;99.90;;;;;;5073713;28;20226;-81
2020/12/25 10:07:10;;;;;;;3.63;1.70;;;8.20;99.90;;;;;;5074051;28;20279;-82
2020/12/25 10:09:36;;;;;;;6.65;1.65;;;8.30;99.90;;;;;;5073830;28;20205;-81
2020/12/25 10:12:03;;;;;;;4.30;2.17;;;8.30;99.90;;;;;;5073754;28;20190;-86
2020/12/25 10:14:29;;;;;;;7.70;1.80;;;8.30;99.90;;;;;;5073824;28;20225;-83
2020/12/25 10:16:56;;;;;;;4.35;1.95;;;8.30;99.90;;;;;;5074156;28;20194;-81
2020/12/25 10:19:22;;;;;;;7.47;2.22;;;8.20;99.90;;;;;;5073649;28;20194;-83
2020/12/25 10:21:49;;;;;;;3.70;1.60;;;8.20;99.90;;;;;;5073596;28;20205;-85
2020/12/25 10:24:15;;;;;;;2.55;1.42;;;8.30;99.90;;;;;;5073356;28;20303;-82
2020/12/25 10:26:42;;;;;;;6.28;2.22;;;8.40;99.90;;;;;;5073553;28;20214;-82
2020/12/25 10:29:09;;;;;;;6.10;1.65;;;8.40;99.90;;;;;;5073582;28;20201;-81
2020/12/25 10:31:35;;;;;;;5.40;1.75;;;8.40;99.90;;;;;;5073618;28;20190;-82
2020/12/25 10:34:01;;;;;;;7.00;1.92;;;8.40;99.90;;;;;;5073429;28;20607;-81
2020/12/25 10:36:27;;;;;;;4.30;1.85;;;8.30;99.90;;;;;;5073655;28;20202;-81
2020/12/25 10:38:53;;;;;;;5.45;2.53;;;8.30;99.90;;;;;;5073450;28;20327;-81
2020/12/25 10:41:20;;;;;;;4.18;1.50;;;8.40;99.90;;;;;;5073336;28;20201;-82
2020/12/25 10:43:46;;;;;;;7.70;1.65;;;8.50;99.90;;;;;;5073148;28;20226;-82
2020/12/25 10:46:20;;;;;;;5.40;1.95;;;8.50;99.90;;;;;;5073448;28;20198;-81
2020/12/25 10:48:46;;;;;;;3.25;1.60;;;8.60;99.90;;;;;;5073328;28;20190;-82
2020/12/25 10:51:12;;;;;;;2.47;1.80;;;8.60;99.90;;;;;;5073392;28;20198;-83
2020/12/25 10:53:39;;;;;;;4.75;1.95;;;8.70;99.90;;;;;;5073271;28;20190;-81
2020/12/25 10:56:06;;;;;;;8.27;2.15;;;8.70;99.90;;;;;;5073055;28;20216;-82
2020/12/25 10:58:32;;;;;;;3.58;2.20;;;8.70;99.90;;;;;;5072912;28;20553;-81
2020/12/25 11:00:58;;;;;;;7.95;1.83;;;8.70;99.90;;;;;;5073109;28;20194;-88
2020/12/25 11:03:25;;;;;;;5.35;1.40;;;8.80;99.90;;;;;;5072992;28;20558;-82
2020/12/25 11:05:51;;;;;;;3.80;1.77;;;8.70;99.90;;;;;;5073058;28;20259;-82
2020/12/25 11:08:18;;;;;;;4.10;1.90;;;8.70;99.90;;;;;;5073047;28;20197;-82
2020/12/25 11:10:44;;;;;;;4.63;2.45;;;8.80;99.90;;;;;;5073331;28;20194;-82
2020/12/25 11:13:11;;;;;;;6.00;2.08;;;8.80;99.90;;;;;;5072936;28;20209;-81
2020/12/25 11:15:39;;;;;;;4.93;2.10;;;8.60;99.90;;;;;;5073353;28;20191;-81
2020/12/25 11:18:05;;;;;;;4.90;1.75;;;8.70;99.90;;;;;;5073153;28;20198;-81
2020/12/25 11:20:32;;;;;;;4.78;1.50;;;8.80;99.90;;;;;;5072996;28;20251;-81
2020/12/25 11:23:00;;;;;;;3.72;1.30;;;8.70;99.90;;;;;;5071633;28;20218;-82
2020/12/25 11:25:26;;;;;;;4.20;2.10;;;8.70;99.90;;;;;;5083884;28;20197;-82
2020/12/25 11:27:52;;;;;;;3.05;1.65;;;8.60;99.90;;;;;;5092457;28;20213;-81
2020/12/25 11:30:18;;;;;;;8.30;1.80;;;8.60;99.90;;;;;;5092576;28;20181;-81
2020/12/25 11:32:45;;;;;;;4.97;1.40;;;8.50;99.90;;;;;;5092502;28;20201;-81
2020/12/25 11:35:11;;;;;;;4.50;1.30;;;8.70;99.90;;;;;;5092632;28;20201;-82
2020/12/25 11:37:38;;;;;;;1.30;1.00;;;8.80;99.90;;;;;;5092801;28;20194;-83
2020/12/25 11:40:05;;;;;;;3.63;1.65;;;8.70;99.90;;;;;;5092946;28;20284;-81
2020/12/25 11:42:31;;;;;;;7.10;1.65;;;8.70;99.90;;;;;;5088602;28;20229;-88
2020/12/25 11:44:57;;;;;;;4.13;1.40;;;8.60;99.90;;;;;;5091084;28;20190;-80
2020/12/25 11:47:23;;;;;;;4.82;1.67;;;8.60;99.90;;;;;;5092793;28;20191;-81
2020/12/25 11:49:50;;;;;;;4.05;1.67;;;8.70;99.90;;;;;;5092603;28;20192;-82
2020/12/25 11:52:16;;;;;;;4.60;1.60;;;8.70;99.90;;;;;;5092724;28;20276;-81
2020/12/25 11:54:43;;;;;;;4.00;1.40;;;8.90;99.90;;;;;;5092818;28;20196;-81
2020/12/25 11:57:09;;;;;;;4.88;1.73;;;8.70;99.90;;;;;;5076072;28;20213;-81
2020/12/25 11:59:35;;;;;;;2.45;1.50;;;8.50;99.90;;;;;;5092455;28;20194;-82
2020/12/25 12:02:01;;;;;;;3.58;1.70;;;8.60;99.90;;;;;;5092537;28;20194;-81
2020/12/25 12:04:28;;;;;;;4.13;1.45;;;8.80;99.90;;;;;;5092195;28;20229;-81
2020/12/25 12:06:57;;;;;;;5.88;2.47;;;8.90;99.90;;;;;;5090015;28;20219;-85
2020/12/25 12:09:23;;;;;;;4.68;2.08;;;8.80;99.90;;;;;;5072901;28;20227;-81
2020/12/25 12:11:50;;;;;;;8.88;1.83;;;8.60;99.90;;;;;;5074900;28;20187;-82
2020/12/25 12:14:16;;;;;;;5.53;2.28;;;8.60;99.90;;;;;;5076172;28;20190;-82
2020/12/25 12:16:43;;;;;;;4.20;1.73;;;8.40;99.90;;;;;;5082628;28;20521;-83
2020/12/25 12:19:09;;;;;;;3.10;1.90;;;8.60;99.90;;;;;;5096235;28;20196;-81
2020/12/25 12:21:35;;;;;;;5.35;1.55;;;8.70;99.90;;;;;;5096296;28;20194;-82
2020/12/25 12:24:01;;;;;;;3.05;1.88;;;8.70;99.90;;;;;;5095989;28;20738;-81
2020/12/25 12:26:27;;;;;;;4.40;1.60;;;8.70;99.90;;;;;;5096064;28;20274;-81
2020/12/25 12:28:54;;;;;;;6.57;1.63;;;8.60;99.90;;;;;;5096138;28;20648;-82
2020/12/25 12:31:21;;;;;;;5.82;1.70;;;8.60;99.90;;;;;;5096149;28;20533;-82
2020/12/25 12:33:48;;;;;;;6.32;3.13;;;8.80;99.90;;;;;;5096122;28;20197;-85
2020/12/25 12:36:14;;;;;;;4.22;1.80;;;9.10;99.90;;;;;;5096172;28;20205;-81
2020/12/25 12:38:41;;;;;;;7.32;2.03;;;9.20;99.90;;;;;;5095829;28;20652;-84
2020/12/25 12:41:07;;;;;;;2.67;1.58;;;9.30;99.90;;;;;;5096188;28;20255;-84
2020/12/25 12:43:33;;;;;;;11.10;1.85;;;9.30;99.90;;;;;;5095756;28;20249;-82
2020/12/25 12:46:00;;;;;;;3.75;1.65;;;9.40;99.90;;;;;;5095756;28;20640;-81
2020/12/25 12:48:26;;;;;;;6.03;1.92;;;9.40;99.90;;;;;;5095799;28;20193;-82
2020/12/25 12:50:53;;;;;;;7.55;1.50;;;9.40;99.90;;;;;;5095821;28;20198;-82
2020/12/25 12:53:19;;;;;;;3.85;1.60;;;9.40;99.90;;;;;;5095664;28;20671;-82
2020/12/25 12:55:45;;;;;;;3.70;1.20;;;9.40;99.90;;;;;;5095554;28;20218;-82
2020/12/25 12:58:12;;;;;;;6.43;1.67;;;9.10;99.90;;;;;;5095688;28;20243;-89
2020/12/25 13:00:39;;;;;;;8.80;2.65;;;9.20;99.90;;;;;;5095771;28;20205;-82
2020/12/25 13:03:06;;;;;;;7.32;2.05;;;9.20;99.90;;;;;;5095290;28;20221;-82